createdAt,value
2024-02-18T00:00:02.614Z,7.11
2024-02-18T00:02:29.432Z,6.90
2024-02-18T00:04:56.423Z,6.65
2024-02-18T00:07:24.016Z,6.65
2024-02-18T00:09:52.860Z,6.75
2024-02-18T00:12:19.851Z,6.89
2024-02-18T00:14:46.549Z,6.98
2024-02-18T00:17:13.954Z,7.07
2024-02-18T00:19:40.708Z,7.12
2024-02-18T00:22:07.495Z,7.10
2024-02-18T00:24:34.297Z,7.12
2024-02-18T00:27:01.063Z,7.10
2024-02-18T00:29:28.099Z,7.07
2024-02-18T00:31:54.782Z,7.09
2024-02-18T00:34:23.372Z,6.98
2024-02-18T00:36:51.437Z,6.76
2024-02-18T00:39:18.510Z,6.75
2024-02-18T00:41:45.316Z,6.79
2024-02-18T00:44:12.030Z,6.90
2024-02-18T00:46:45.344Z,6.97
2024-02-18T00:49:19.011Z,6.88
2024-02-18T00:51:46.576Z,6.74
2024-02-18T00:54:13.553Z,6.65
2024-02-18T00:56:40.246Z,6.76
2024-02-18T00:59:07.111Z,6.87
2024-02-18T01:01:34.488Z,6.94
2024-02-18T01:04:01.793Z,7.01
2024-02-18T01:06:28.568Z,7.05
2024-02-18T01:08:55.391Z,7.00
2024-02-18T01:11:22.167Z,6.92
2024-02-18T01:13:49.025Z,6.87
2024-02-18T01:16:15.726Z,6.91
2024-02-18T01:18:44.239Z,6.93
2024-02-18T01:21:11.955Z,6.92
2024-02-18T01:23:38.987Z,6.89
2024-02-18T01:26:06.354Z,6.87
2024-02-18T01:28:33.083Z,6.82
2024-02-18T01:30:59.818Z,6.77
2024-02-18T01:33:26.616Z,6.46
2024-02-18T01:35:53.607Z,6.27
2024-02-18T01:38:20.315Z,6.19
2024-02-18T01:40:47.052Z,5.94
2024-02-18T01:43:15.915Z,6.01
2024-02-18T01:45:42.625Z,6.01
2024-02-18T01:48:09.606Z,6.07
2024-02-18T01:50:36.766Z,6.10
2024-02-18T01:53:04.453Z,6.06
2024-02-18T01:55:33.393Z,6.05
2024-02-18T01:58:01.575Z,6.04
2024-02-18T02:00:29.142Z,6.02
2024-02-18T02:02:56.042Z,5.94
2024-02-18T02:05:23.119Z,5.89
2024-02-18T02:07:53.656Z,5.81
2024-02-18T02:10:20.838Z,5.71
2024-02-18T02:12:48.517Z,5.67
2024-02-18T02:15:15.515Z,5.67
2024-02-18T02:17:42.228Z,5.71
2024-02-18T02:20:10.749Z,5.69
2024-02-18T02:22:38.477Z,5.55
2024-02-18T02:25:06.080Z,5.44
2024-02-18T02:27:39.117Z,5.46
2024-02-18T02:30:06.599Z,5.44
2024-02-18T02:32:33.757Z,5.43
2024-02-18T02:35:00.550Z,5.46
2024-02-18T02:37:27.278Z,5.46
2024-02-18T02:39:53.979Z,5.17
2024-02-18T02:42:20.963Z,5.20
2024-02-18T02:44:47.746Z,5.25
2024-02-18T02:47:14.539Z,5.31
2024-02-18T02:49:41.468Z,5.39
2024-02-18T02:52:08.210Z,5.46
2024-02-18T02:54:35.081Z,5.49
2024-02-18T02:57:01.894Z,5.49
2024-02-18T02:59:28.572Z,5.44
2024-02-18T03:01:55.275Z,5.44
2024-02-18T03:04:22.121Z,5.47
2024-02-18T03:06:49.059Z,5.51
2024-02-18T03:09:15.761Z,5.51
2024-02-18T03:11:42.441Z,5.52
2024-02-18T03:14:09.094Z,5.51
2024-02-18T03:16:35.773Z,5.47
2024-02-18T03:19:02.512Z,4.96
2024-02-18T03:21:29.398Z,4.73
2024-02-18T03:23:56.219Z,4.64
2024-02-18T03:26:23.062Z,4.59
2024-02-18T03:28:49.756Z,4.72
2024-02-18T03:31:20.094Z,4.89
2024-02-18T03:33:47.431Z,5.00
2024-02-18T03:36:14.276Z,5.10
2024-02-18T03:38:41.607Z,5.18
2024-02-18T03:41:08.796Z,5.10
2024-02-18T03:43:35.928Z,5.14
2024-02-18T03:46:03.481Z,5.21
2024-02-18T03:48:30.887Z,5.18
2024-02-18T03:50:57.832Z,5.02
2024-02-18T03:53:24.635Z,4.91
2024-02-18T03:55:51.602Z,4.85
2024-02-18T03:58:18.686Z,4.87
2024-02-18T04:00:48.063Z,4.85
2024-02-18T04:03:15.599Z,4.81
2024-02-18T04:05:43.001Z,4.76
2024-02-18T04:08:10.428Z,4.68
2024-02-18T04:10:37.448Z,4.68
2024-02-18T04:13:05.216Z,4.66
2024-02-18T04:15:32.173Z,4.65
2024-02-18T04:17:59.083Z,4.66
2024-02-18T04:20:26.127Z,4.63
2024-02-18T04:22:53.304Z,4.59
2024-02-18T04:25:20.009Z,4.60
2024-02-18T04:27:46.971Z,4.61
2024-02-18T04:30:14.283Z,4.64
2024-02-18T04:32:41.318Z,4.67
2024-02-18T04:35:08.384Z,4.70
2024-02-18T04:37:35.266Z,4.71
2024-02-18T04:40:02.153Z,4.72
2024-02-18T04:42:28.870Z,4.64
2024-02-18T04:44:55.561Z,4.36
2024-02-18T04:47:23.950Z,4.33
2024-02-18T04:49:50.851Z,4.34
2024-02-18T04:52:17.628Z,4.17
2024-02-18T04:54:44.395Z,4.27
2024-02-18T04:57:11.173Z,4.36
2024-02-18T04:59:37.861Z,4.53
2024-02-18T05:02:04.803Z,4.44
2024-02-18T05:04:33.058Z,4.54
2024-02-18T05:07:01.176Z,4.61
2024-02-18T05:09:28.249Z,4.65
2024-02-18T05:11:55.770Z,4.66
2024-02-18T05:14:22.736Z,4.71
2024-02-18T05:16:49.699Z,4.74
2024-02-18T05:19:18.396Z,4.77
2024-02-18T05:21:45.452Z,4.74
2024-02-18T05:24:13.107Z,4.61
2024-02-18T05:26:40.287Z,4.47
2024-02-18T05:29:07.765Z,4.41
2024-02-18T05:31:35.883Z,4.22
2024-02-18T05:34:03.472Z,4.08
2024-02-18T05:36:31.412Z,4.01
2024-02-18T05:38:58.112Z,3.93
2024-02-18T05:41:24.861Z,3.85
2024-02-18T05:43:51.674Z,3.91
2024-02-18T05:46:18.442Z,3.97
2024-02-18T05:48:45.911Z,4.01
2024-02-18T05:51:12.894Z,4.24
2024-02-18T05:53:39.595Z,4.39
2024-02-18T05:56:08.026Z,4.48
2024-02-18T05:58:34.917Z,4.58
2024-02-18T06:01:02.044Z,4.66
2024-02-18T06:03:28.851Z,4.70
2024-02-18T06:05:55.779Z,4.47
2024-02-18T06:08:22.683Z,4.42
2024-02-18T06:10:50.068Z,4.32
2024-02-18T06:13:16.923Z,4.40
2024-02-18T06:15:43.645Z,4.47
2024-02-18T06:18:11.593Z,4.61
2024-02-18T06:20:38.346Z,4.65
2024-02-18T06:23:05.791Z,4.68
2024-02-18T06:25:37.262Z,4.78
2024-02-18T06:28:10.621Z,4.89
2024-02-18T06:30:38.248Z,4.81
2024-02-18T06:33:06.246Z,4.72
2024-02-18T06:35:33.217Z,4.65
2024-02-18T06:38:00.197Z,4.79
2024-02-18T06:40:26.890Z,4.77
2024-02-18T06:42:53.695Z,4.90
2024-02-18T06:45:21.012Z,5.07
2024-02-18T06:47:48.996Z,5.13
2024-02-18T06:50:17.129Z,4.92
2024-02-18T06:52:43.877Z,5.07
2024-02-18T06:55:11.251Z,5.21
2024-02-18T06:57:38.518Z,5.40
2024-02-18T07:00:05.663Z,5.47
2024-02-18T07:02:32.450Z,5.61
2024-02-18T07:04:59.158Z,5.72
2024-02-18T07:07:25.946Z,5.81
2024-02-18T07:09:52.750Z,5.91
2024-02-18T07:12:19.456Z,6.02
2024-02-18T07:14:46.112Z,6.05
2024-02-18T07:17:13.967Z,6.15
2024-02-18T07:19:40.822Z,6.29
2024-02-18T07:22:08.046Z,6.32
2024-02-18T07:24:34.790Z,6.44
2024-02-18T07:27:01.504Z,6.53
2024-02-18T07:29:28.240Z,6.65
2024-02-18T07:31:54.922Z,6.76
2024-02-18T07:34:21.900Z,6.85
2024-02-18T07:36:48.755Z,6.92
2024-02-18T07:39:15.435Z,6.92
2024-02-18T07:41:42.164Z,7.05
2024-02-18T07:44:08.829Z,7.06
2024-02-18T07:46:35.492Z,6.95
2024-02-18T07:49:02.334Z,7.12
2024-02-18T07:51:29.807Z,7.34
2024-02-18T07:53:57.438Z,7.49
2024-02-18T07:56:24.127Z,7.61
2024-02-18T07:58:50.887Z,7.73
2024-02-18T08:01:17.717Z,7.94
2024-02-18T08:03:44.787Z,8.22
2024-02-18T08:06:11.628Z,8.51
2024-02-18T08:08:38.540Z,8.86
2024-02-18T08:11:05.340Z,9.22
2024-02-18T08:13:32.056Z,9.46
2024-02-18T08:15:59.894Z,9.84
2024-02-18T08:18:26.884Z,10.14
2024-02-18T08:20:53.751Z,10.49
2024-02-18T08:23:20.557Z,10.92
2024-02-18T08:25:47.528Z,11.32
2024-02-18T08:28:14.116Z,11.67
2024-02-18T08:30:40.848Z,11.88
2024-02-18T08:33:07.608Z,12.00
2024-02-18T08:35:34.319Z,12.28
2024-02-18T08:38:01.173Z,12.66
2024-02-18T08:40:27.809Z,12.78
2024-02-18T08:42:54.680Z,13.02
2024-02-18T08:45:21.310Z,13.50
2024-02-18T08:47:49.469Z,13.62
2024-02-18T08:50:16.596Z,14.08
2024-02-18T08:52:43.313Z,14.72
2024-02-18T08:55:10.137Z,15.31
2024-02-18T08:57:36.944Z,15.87
2024-02-18T09:00:04.225Z,16.31
2024-02-18T09:02:30.972Z,16.66
2024-02-18T09:05:01.009Z,16.84
2024-02-18T09:07:29.608Z,17.10
2024-02-18T09:09:56.427Z,16.97
2024-02-18T09:12:23.250Z,16.80
2024-02-18T09:14:49.946Z,16.13
2024-02-18T09:17:20.278Z,15.33
2024-02-18T09:19:48.273Z,15.25
2024-02-18T09:22:15.636Z,15.34
2024-02-18T09:24:45.846Z,15.70
2024-02-18T09:27:12.623Z,16.10
2024-02-18T09:29:39.498Z,16.19
2024-02-18T09:32:06.677Z,16.33
2024-02-18T09:34:33.640Z,15.76
2024-02-18T09:37:00.473Z,15.75
2024-02-18T09:39:27.205Z,15.97
2024-02-18T09:41:54.474Z,16.45
2024-02-18T09:44:23.757Z,16.71
2024-02-18T09:46:52.974Z,16.67
2024-02-18T09:49:21.586Z,16.92
2024-02-18T09:51:58.291Z,17.30
2024-02-18T09:54:26.763Z,16.89
2024-02-18T09:56:54.105Z,17.26
2024-02-18T09:59:20.817Z,17.77
2024-02-18T10:01:53.201Z,18.25
2024-02-18T10:04:20.083Z,18.66
2024-02-18T10:06:47.089Z,18.92
2024-02-18T10:09:14.133Z,18.84
2024-02-18T10:11:40.998Z,18.98
2024-02-18T10:14:08.124Z,19.40
2024-02-18T10:16:37.282Z,19.28
2024-02-18T10:19:04.261Z,18.90
2024-02-18T10:21:31.117Z,19.03
2024-02-18T10:23:58.320Z,19.26
2024-02-18T10:26:25.376Z,19.65
2024-02-18T10:28:53.689Z,19.76
2024-02-18T10:31:20.462Z,19.63
2024-02-18T10:33:47.254Z,19.49
2024-02-18T10:36:15.612Z,19.18
2024-02-18T10:38:46.932Z,19.60
2024-02-18T10:41:21.082Z,19.72
2024-02-18T10:43:51.585Z,19.80
2024-02-18T10:46:22.990Z,19.99
2024-02-18T10:48:56.576Z,19.97
2024-02-18T10:51:31.285Z,19.70
2024-02-18T10:54:13.054Z,19.38
2024-02-18T10:56:41.891Z,19.57
2024-02-18T10:59:11.594Z,19.76
2024-02-18T11:01:44.449Z,19.61
2024-02-18T11:04:11.919Z,19.22
2024-02-18T11:06:39.682Z,19.59
2024-02-18T11:09:09.804Z,19.78
2024-02-18T11:11:37.750Z,19.30
2024-02-18T11:14:06.167Z,19.08
2024-02-18T11:16:36.277Z,19.39
2024-02-18T11:19:04.517Z,19.52
2024-02-18T11:21:31.981Z,19.62
2024-02-18T11:24:00.027Z,20.05
2024-02-18T11:26:27.048Z,20.01
2024-02-18T11:28:53.926Z,20.29
2024-02-18T11:31:31.513Z,20.54
2024-02-18T11:33:58.583Z,20.52
2024-02-18T11:36:28.084Z,20.67
2024-02-18T11:38:57.597Z,20.51
2024-02-18T11:41:33.242Z,20.47
2024-02-18T11:44:17.410Z,20.40
2024-02-18T11:46:46.442Z,19.95
2024-02-18T11:49:13.425Z,19.58
2024-02-18T11:51:41.421Z,19.04
2024-02-18T11:54:08.295Z,18.79
2024-02-18T11:56:35.473Z,18.96
2024-02-18T11:59:02.521Z,19.22
2024-02-18T12:01:31.540Z,19.22
2024-02-18T12:03:59.992Z,19.47
2024-02-18T12:06:27.000Z,19.30
2024-02-18T12:08:53.988Z,19.45
2024-02-18T12:11:20.760Z,19.58
2024-02-18T12:13:47.552Z,19.65
2024-02-18T12:16:14.536Z,19.75
2024-02-18T12:18:41.447Z,19.63
2024-02-18T12:21:08.631Z,19.78
2024-02-18T12:23:44.303Z,20.07
2024-02-18T12:26:11.817Z,20.33
2024-02-18T12:28:38.557Z,20.32
2024-02-18T12:31:05.827Z,19.83
2024-02-18T12:33:33.798Z,19.08
2024-02-18T12:36:00.864Z,18.44
2024-02-18T12:38:27.831Z,18.22
2024-02-18T12:40:57.208Z,18.19
2024-02-18T12:43:57.006Z,17.87
2024-02-18T12:46:13.329Z,17.43
2024-02-18T12:48:40.627Z,17.43
2024-02-18T12:51:12.573Z,17.77
2024-02-18T12:53:41.462Z,17.69
2024-02-18T12:56:10.844Z,17.81
2024-02-18T12:58:38.160Z,17.52
2024-02-18T13:01:05.781Z,17.36
2024-02-18T13:03:33.993Z,17.43
2024-02-18T13:06:01.820Z,17.40
2024-02-18T13:08:28.728Z,17.21
2024-02-18T13:10:56.997Z,17.00
2024-02-18T13:13:23.684Z,17.15
2024-02-18T13:15:53.251Z,17.12
2024-02-18T13:18:20.256Z,17.03
2024-02-18T13:20:47.037Z,16.63
2024-02-18T13:23:13.579Z,16.57
2024-02-18T13:25:40.263Z,16.43
2024-02-18T13:28:07.225Z,16.70
2024-02-18T13:30:34.053Z,16.90
2024-02-18T13:33:03.726Z,16.82
2024-02-18T13:35:30.462Z,16.58
2024-02-18T13:37:57.113Z,16.50
2024-02-18T13:40:23.937Z,16.13
2024-02-18T13:42:50.724Z,15.96
2024-02-18T13:45:17.446Z,16.24
2024-02-18T13:47:45.205Z,16.47
2024-02-18T13:50:12.263Z,16.35
2024-02-18T13:52:39.093Z,16.43
2024-02-18T13:55:06.348Z,16.17
2024-02-18T13:57:33.132Z,16.09
2024-02-18T13:59:59.816Z,16.22
2024-02-18T14:02:26.470Z,16.04
2024-02-18T14:04:53.298Z,15.87
2024-02-18T14:07:24.630Z,15.62
2024-02-18T14:09:51.508Z,15.61
2024-02-18T14:12:18.103Z,15.83
2024-02-18T14:14:50.410Z,15.87
2024-02-18T14:17:17.225Z,15.86
2024-02-18T14:19:44.023Z,15.79
2024-02-18T14:22:10.987Z,15.81
2024-02-18T14:24:37.795Z,15.83
2024-02-18T14:27:04.623Z,15.62
2024-02-18T14:29:31.288Z,15.41
2024-02-18T14:31:57.926Z,15.36
2024-02-18T14:34:24.843Z,15.32
2024-02-18T14:36:51.782Z,15.21
2024-02-18T14:39:18.494Z,15.47
2024-02-18T14:41:45.178Z,15.43
2024-02-18T14:44:11.848Z,15.26
2024-02-18T14:46:38.519Z,15.08
2024-02-18T14:49:05.298Z,15.21
2024-02-18T14:51:32.969Z,15.42
2024-02-18T14:53:59.786Z,15.42
2024-02-18T14:56:26.524Z,15.49
2024-02-18T14:58:53.415Z,15.37
2024-02-18T15:01:20.617Z,15.20
2024-02-18T15:03:47.597Z,15.15
2024-02-18T15:06:14.414Z,15.04
2024-02-18T15:08:41.869Z,14.78
2024-02-18T15:11:08.594Z,14.63
2024-02-18T15:13:35.305Z,14.52
2024-02-18T15:16:02.183Z,14.46
2024-02-18T15:18:28.847Z,14.26
2024-02-18T15:20:56.970Z,14.07
2024-02-18T15:23:23.781Z,14.10
2024-02-18T15:25:53.271Z,14.07
2024-02-18T15:28:20.714Z,14.11
2024-02-18T15:30:47.519Z,14.11
2024-02-18T15:33:14.393Z,14.13
2024-02-18T15:35:41.540Z,14.05
2024-02-18T15:38:08.501Z,13.73
2024-02-18T15:40:35.300Z,13.56
2024-02-18T15:43:02.465Z,13.29
2024-02-18T15:45:29.318Z,13.27
2024-02-18T15:47:57.463Z,13.17
2024-02-18T15:50:24.558Z,13.02
2024-02-18T15:52:51.437Z,13.10
2024-02-18T15:55:20.130Z,12.94
2024-02-18T15:57:47.198Z,12.89
2024-02-18T16:00:14.128Z,12.85
2024-02-18T16:02:40.978Z,12.65
2024-02-18T16:05:08.356Z,12.56
2024-02-18T16:07:35.185Z,12.51
2024-02-18T16:10:02.085Z,12.45
2024-02-18T16:12:28.857Z,12.30
2024-02-18T16:14:55.533Z,12.22
2024-02-18T16:17:25.033Z,11.99
2024-02-18T16:19:53.260Z,11.93
2024-02-18T16:22:20.005Z,11.90
2024-02-18T16:24:48.300Z,11.81
2024-02-18T16:27:15.057Z,11.67
2024-02-18T16:29:41.830Z,11.58
2024-02-18T16:32:11.044Z,11.54
2024-02-18T16:34:37.798Z,11.52
2024-02-18T16:37:04.883Z,11.39
2024-02-18T16:39:36.204Z,11.32
2024-02-18T16:42:04.008Z,11.25
2024-02-18T16:44:30.929Z,11.26
2024-02-18T16:47:01.425Z,11.25
2024-02-18T16:49:28.610Z,11.18
2024-02-18T16:51:57.411Z,11.11
2024-02-18T16:54:24.133Z,10.99
2024-02-18T16:56:51.957Z,10.94
2024-02-18T16:59:19.175Z,10.83
2024-02-18T17:01:50.198Z,10.73
2024-02-18T17:04:17.343Z,10.69
2024-02-18T17:06:44.219Z,10.56
2024-02-18T17:09:14.675Z,10.48
2024-02-18T17:11:41.491Z,10.39
2024-02-18T17:14:08.213Z,10.02
2024-02-18T17:16:37.681Z,9.97
2024-02-18T17:19:08.820Z,9.90
2024-02-18T17:21:35.749Z,9.79
2024-02-18T17:24:03.127Z,9.72
2024-02-18T17:26:31.787Z,9.58
2024-02-18T17:28:58.705Z,9.50
2024-02-18T17:31:26.693Z,9.45
2024-02-18T17:33:56.442Z,9.49
2024-02-18T17:36:24.651Z,9.37
2024-02-18T17:38:51.385Z,9.33
2024-02-18T17:41:18.134Z,9.28
2024-02-18T17:43:44.816Z,9.21
2024-02-18T17:46:11.557Z,9.10
2024-02-18T17:48:39.751Z,9.04
2024-02-18T17:51:07.665Z,9.02
2024-02-18T17:53:34.360Z,8.95
2024-02-18T17:56:01.083Z,8.88
2024-02-18T17:58:27.900Z,8.78
2024-02-18T18:00:55.253Z,8.69
2024-02-18T18:03:21.964Z,8.60
2024-02-18T18:05:48.629Z,8.52
2024-02-18T18:08:15.395Z,8.36
2024-02-18T18:10:42.124Z,8.30
2024-02-18T18:13:08.812Z,8.25
2024-02-18T18:15:35.573Z,8.20
2024-02-18T18:18:02.351Z,8.12
2024-02-18T18:20:29.074Z,8.04
2024-02-18T18:22:56.061Z,8.04
2024-02-18T18:25:22.864Z,7.98
2024-02-18T18:27:49.614Z,7.88
2024-02-18T18:30:16.417Z,7.63
2024-02-18T18:32:46.174Z,7.59
2024-02-18T18:35:13.183Z,7.64
2024-02-18T18:37:40.165Z,7.67
2024-02-18T18:40:09.189Z,7.69
2024-02-18T18:42:37.815Z,7.69
2024-02-18T18:45:08.511Z,7.73
2024-02-18T18:47:36.259Z,7.72
2024-02-18T18:50:05.846Z,7.77
2024-02-18T18:52:33.614Z,7.75
2024-02-18T18:55:00.509Z,7.63
2024-02-18T18:57:27.486Z,7.63
2024-02-18T18:59:54.197Z,7.63
2024-02-18T19:02:20.930Z,7.61
2024-02-18T19:04:47.813Z,7.41
2024-02-18T19:07:14.877Z,7.09
2024-02-18T19:09:41.700Z,7.06
2024-02-18T19:12:08.607Z,7.10
2024-02-18T19:14:35.264Z,7.13
2024-02-18T19:17:02.148Z,7.20
2024-02-18T19:19:28.953Z,7.19
2024-02-18T19:21:59.153Z,7.24
2024-02-18T19:24:27.036Z,7.26
2024-02-18T19:26:53.873Z,7.25
2024-02-18T19:29:21.241Z,7.22
2024-02-18T19:31:47.813Z,7.19
2024-02-18T19:34:14.589Z,7.14
2024-02-18T19:36:42.746Z,7.00
2024-02-18T19:39:11.501Z,6.56
2024-02-18T19:41:42.268Z,6.61
2024-02-18T19:44:09.581Z,6.72
2024-02-18T19:46:43.762Z,6.80
2024-02-18T19:49:11.834Z,6.79
2024-02-18T19:51:42.894Z,6.73
2024-02-18T19:54:09.850Z,6.72
2024-02-18T19:56:36.615Z,6.62
2024-02-18T19:59:04.156Z,6.58
2024-02-18T20:01:31.016Z,6.59
2024-02-18T20:03:57.867Z,6.37
2024-02-18T20:06:24.643Z,6.24
2024-02-18T20:08:51.372Z,6.24
2024-02-18T20:11:18.101Z,6.26
2024-02-18T20:13:44.804Z,6.29
2024-02-18T20:16:11.674Z,6.22
2024-02-18T20:18:38.600Z,6.12
2024-02-18T20:21:05.852Z,6.16
2024-02-18T20:23:32.674Z,6.36
2024-02-18T20:25:59.849Z,6.36
2024-02-18T20:28:26.794Z,6.43
2024-02-18T20:30:53.637Z,6.59
2024-02-18T20:33:20.603Z,6.74
2024-02-18T20:35:47.368Z,6.83
2024-02-18T20:38:14.065Z,6.83
2024-02-18T20:40:42.464Z,6.67
2024-02-18T20:43:09.346Z,6.55
2024-02-18T20:45:36.176Z,6.54
2024-02-18T20:48:04.344Z,6.52
2024-02-18T20:50:31.100Z,6.44
2024-02-18T20:52:59.050Z,6.49
2024-02-18T20:55:25.772Z,6.45
2024-02-18T20:57:52.841Z,6.58
2024-02-18T21:00:20.910Z,6.56
2024-02-18T21:02:47.615Z,6.43
2024-02-18T21:05:14.453Z,6.32
2024-02-18T21:07:41.216Z,6.03
2024-02-18T21:10:08.549Z,6.03
2024-02-18T21:12:35.355Z,6.22
2024-02-18T21:15:02.161Z,6.31
2024-02-18T21:17:29.424Z,6.31
2024-02-18T21:19:56.174Z,6.41
2024-02-18T21:22:23.059Z,6.40
2024-02-18T21:24:50.172Z,6.29
2024-02-18T21:27:16.913Z,6.32
2024-02-18T21:29:43.681Z,6.31
2024-02-18T21:32:10.425Z,6.28
2024-02-18T21:34:37.182Z,6.31
2024-02-18T21:37:04.124Z,6.26
2024-02-18T21:39:40.608Z,6.28
2024-02-18T21:42:14.623Z,6.36
2024-02-18T21:44:41.325Z,6.31
2024-02-18T21:47:08.063Z,6.38
2024-02-18T21:49:36.089Z,6.48
2024-02-18T21:52:04.105Z,6.52
2024-02-18T21:54:31.235Z,6.54
2024-02-18T21:56:58.148Z,6.59
2024-02-18T21:59:25.098Z,6.52
2024-02-18T22:01:53.443Z,6.54
2024-02-18T22:04:20.696Z,6.56
2024-02-18T22:07:00.561Z,6.58
2024-02-18T22:09:34.325Z,6.62
2024-02-18T22:12:01.029Z,6.67
2024-02-18T22:14:27.790Z,6.72
2024-02-18T22:16:54.464Z,6.77
2024-02-18T22:19:21.409Z,6.76
2024-02-18T22:21:48.546Z,6.86
2024-02-18T22:24:15.341Z,6.89
2024-02-18T22:26:43.455Z,6.89
2024-02-18T22:29:10.128Z,6.83
2024-02-18T22:31:36.806Z,6.65
2024-02-18T22:34:03.594Z,6.54
2024-02-18T22:36:30.307Z,6.44
2024-02-18T22:38:57.359Z,6.35
2024-02-18T22:41:24.034Z,6.40
2024-02-18T22:43:50.709Z,6.34
2024-02-18T22:46:17.561Z,6.37
2024-02-18T22:48:44.474Z,6.37
2024-02-18T22:51:11.270Z,6.50
2024-02-18T22:53:42.181Z,6.55
2024-02-18T22:56:09.672Z,6.73
2024-02-18T22:58:37.190Z,6.98
2024-02-18T23:01:04.824Z,7.32
2024-02-18T23:03:31.675Z,7.60
2024-02-18T23:05:58.395Z,8.04
2024-02-18T23:08:25.564Z,8.29
2024-02-18T23:10:52.360Z,8.39
2024-02-18T23:13:19.446Z,8.57
2024-02-18T23:15:46.159Z,8.65
2024-02-18T23:18:12.989Z,8.75
2024-02-18T23:20:40.436Z,8.63
2024-02-18T23:23:07.948Z,8.55
2024-02-18T23:25:34.823Z,8.52
2024-02-18T23:28:01.590Z,8.62
2024-02-18T23:30:28.346Z,8.57
2024-02-18T23:32:55.725Z,8.59
2024-02-18T23:35:23.098Z,8.58
2024-02-18T23:37:49.979Z,9.12
2024-02-18T23:40:16.823Z,8.94
2024-02-18T23:42:43.667Z,9.30
2024-02-18T23:45:10.591Z,9.30
2024-02-18T23:47:37.324Z,9.67
2024-02-18T23:50:04.432Z,9.87
2024-02-18T23:52:31.099Z,9.82
2024-02-18T23:55:00.114Z,9.46
2024-02-18T23:57:27.837Z,9.55
2024-02-18T23:59:54.722Z,9.86
